KCPR/CPR METAR and TAF weather

Enter ICAO airport designator
Station Type Date Time Source
KCPR METAR 2022/11/27 07:20 UTC NOAA

KCPR 270720Z AUTO 27003KT 10SM BKN003 OVC017 M02/M02 A2997 RMK AO2 T10171017


Station Type Date Time Source
KCPR Decoded METAR 2022/11/27 07:20 UTC NOAA

NATRONA COUNTY INTERNATIONAL AIRPORT , WY, United States (KCPR) 42-54N 106-28W 1621M
Nov 27, 2022 - 02:20 AM EST / 2022.11.27 0720 UTC
Wind: from the W (270 degrees) at 3 MPH (3 KT):0
Visibility: 10 mile(s):0
Sky conditions: overcast
Temperature: 28.9 F (-1.7 C)
Dew Point: 28.9 F (-1.7 C)
Relative Humidity: 100%
Pressure (altimeter): 29.97 in. Hg (1014 hPa)
ob: KCPR 270720Z AUTO 27003KT 10SM BKN003 OVC017 M02/M02 A2997 RMK AO2 T10171017
cycle: 7

Station Type Date Time Source
KCPR TAF 2022/11/27 06:27 UTC NOAA

TAF KCPR 270524Z 2706/2806 VRB05KT P6SM VCFG SCT005 BKN040
FM271100 24008KT P6SM SCT025
FM271600 22026G42KT P6SM SCT100

Example: see airport list